Time;durP1;ratioP1;P1;durP2;ratioP2;P2;SDS_P1;SDS_P2;PMS_P1;PMS_P2;Temp;Humidity;BMP_temperature;BMP_pressure;BME280_temperature;BME280_humidity;BME280_pressure;Samples;Min_cycle;Max_cycle;Signal;HPM_P1;HPM_P2
2021/08/05 00:03:17;;;;;;;7.10;6.50;;;;;;;16.79;100.00;98646.84;10462205;28;20246;-77
2021/08/05 00:08:36;;;;;;;8.50;7.43;;;;;;;16.65;100.00;98652.13;10463550;28;20183;-78
2021/08/05 00:13:55;;;;;;;7.37;6.77;;;;;;;16.64;100.00;98656.91;10504332;28;20182;-79
2021/08/05 00:19:14;;;;;;;9.60;7.30;;;;;;;16.64;100.00;98650.59;10494650;28;20533;-77
2021/08/05 00:24:33;;;;;;;7.40;6.80;;;;;;;16.61;100.00;98659.81;10462207;28;20567;-77
2021/08/05 00:29:52;;;;;;;8.07;7.40;;;;;;;16.61;100.00;98662.59;10472992;28;20221;-78
2021/08/05 00:35:11;;;;;;;11.77;7.40;;;;;;;16.61;100.00;98657.03;10502025;28;20668;-77
2021/08/05 00:40:30;;;;;;;9.47;6.57;;;;;;;16.57;100.00;98661.91;10470540;28;20673;-77
2021/08/05 00:45:49;;;;;;;9.23;7.07;;;;;;;16.57;100.00;98664.69;10458856;28;20211;-76
2021/08/05 00:51:09;;;;;;;6.83;6.33;;;;;;;16.80;100.00;98651.19;10483053;28;20179;-77
2021/08/05 00:56:28;;;;;;;8.00;7.07;;;;;;;16.56;100.00;98652.06;10501628;28;20191;-76
2021/08/05 01:01:56;;;;;;;8.37;6.90;;;;;;;16.44;100.00;98648.06;10473941;28;20567;-78
2021/08/05 01:07:26;;;;;;;9.67;7.40;;;;;;;16.46;100.00;98645.63;10460874;28;20180;-77
2021/08/05 01:13:08;;;;;;;7.80;7.20;;;;;;;16.41;100.00;98645.41;10495173;28;20206;-77
2021/08/05 01:18:32;;;;;;;7.70;7.00;;;;;;;16.45;100.00;98646.09;10499633;28;20596;-77
2021/08/05 01:24:01;;;;;;;7.20;6.60;;;;;;;16.46;100.00;98633.75;10459921;28;20749;-77
2021/08/05 01:29:20;;;;;;;9.40;7.13;;;;;;;16.44;100.00;98616.78;10465792;28;20187;-76
2021/08/05 01:34:39;;;;;;;7.60;6.90;;;;;;;16.37;100.00;98603.13;10500072;28;20174;-77
2021/08/05 01:39:58;;;;;;;12.23;7.30;;;;;;;16.35;100.00;98606.38;10489084;28;20219;-76
2021/08/05 01:45:18;;;;;;;9.20;8.20;;;;;;;16.32;100.00;98612.00;10457557;28;20232;-76
2021/08/05 01:50:37;;;;;;;9.67;8.57;;;;;;;16.32;100.00;98612.81;10474606;28;20214;-77
2021/08/05 01:55:57;;;;;;;7.37;6.60;;;;;;;16.17;100.00;98610.91;10500206;28;20229;-78
2021/08/05 02:01:18;;;;;;;9.77;8.87;;;;;;;16.12;100.00;98611.50;10476323;28;20190;-76
2021/08/05 02:06:51;;;;;;;7.47;6.87;;;;;;;16.14;100.00;98611.84;10459616;28;20577;-76
2021/08/05 02:12:11;;;;;;;9.27;7.43;;;;;;;16.06;100.00;98605.72;10486114;28;20648;-77
2021/08/05 02:17:38;;;;;;;7.30;6.70;;;;;;;16.02;100.00;98605.09;10498156;28;20174;-77
2021/08/05 02:22:58;;;;;;;11.10;7.50;;;;;;;16.13;100.00;98604.72;10464051;28;20210;-76
2021/08/05 02:28:20;;;;;;;7.40;6.80;;;;;;;16.05;100.00;98587.53;10457729;28;20172;-77
2021/08/05 02:33:40;;;;;;;12.53;7.57;;;;;;;16.00;100.00;98609.50;10496413;28;20190;-79
2021/08/05 02:38:59;;;;;;;8.27;6.57;;;;;;;16.13;100.00;98591.63;10496434;28;20222;-79
2021/08/05 02:44:19;;;;;;;9.80;7.17;;;;;;;16.00;100.00;98590.09;10455649;28;20218;-77
2021/08/05 02:49:39;;;;;;;9.77;7.87;;;;;;;15.95;100.00;98587.13;10462207;28;20179;-77
2021/08/05 02:54:58;;;;;;;8.20;7.40;;;;;;;15.87;100.00;98586.56;10497930;28;20187;-77
2021/08/05 03:00:18;;;;;;;10.10;8.07;;;;;;;15.90;100.00;98579.34;10484608;28;20403;-77
2021/08/05 03:05:39;;;;;;;9.13;7.70;;;;;;;15.93;100.00;98575.69;10455843;28;20227;-77
2021/08/05 03:10:58;;;;;;;11.87;7.50;;;;;;;15.92;100.00;98572.13;10473262;28;20594;-77
2021/08/05 03:16:17;;;;;;;9.70;8.10;;;;;;;15.90;100.00;98571.81;10495731;28;20174;-78
2021/08/05 03:21:36;;;;;;;8.40;7.13;;;;;;;15.86;100.00;98562.06;10474802;28;20184;-77
2021/08/05 03:26:56;;;;;;;10.73;7.50;;;;;;;15.83;100.00;98558.16;10455808;28;20171;-76
2021/08/05 03:32:15;;;;;;;11.53;7.87;;;;;;;15.96;100.00;98562.47;10481717;28;20186;-77
2021/08/05 03:37:34;;;;;;;12.13;8.23;;;;;;;15.80;100.00;98553.50;10497195;28;20178;-76
2021/08/05 03:42:53;;;;;;;9.13;8.17;;;;;;;15.81;100.00;98548.72;10464012;28;20211;-77
2021/08/05 03:48:12;;;;;;;11.67;7.67;;;;;;;15.66;100.00;98555.97;10454407;28;20201;-78
2021/08/05 03:53:34;;;;;;;8.90;8.10;;;;;;;15.72;100.00;98557.75;10492463;28;20194;-77
2021/08/05 03:58:53;;;;;;;8.97;8.03;;;;;;;15.49;100.00;98568.41;10496725;28;20195;-78
2021/08/05 04:04:13;;;;;;;15.33;9.20;;;;;;;15.47;100.00;98568.84;10453172;28;20207;-77
2021/08/05 04:09:31;;;;;;;21.10;10.13;;;;;;;15.20;100.00;98564.94;10458735;28;20266;-77
2021/08/05 04:14:51;;;;;;;98.70;15.53;;;;;;;15.16;100.00;98553.94;10496135;28;20558;-77
2021/08/05 04:20:10;;;;;;;38.47;11.30;;;;;;;15.20;100.00;98559.38;10486314;28;20679;-77
2021/08/05 04:25:29;;;;;;;36.73;11.60;;;;;;;15.14;100.00;98556.38;10457427;28;20207;-76
2021/08/05 04:30:53;;;;;;;22.47;10.87;;;;;;;15.30;100.00;98555.56;10474970;28;20186;-78
2021/08/05 04:36:12;;;;;;;9.10;8.20;;;;;;;15.26;100.00;98565.94;10503568;28;20179;-78
2021/08/05 04:41:32;;;;;;;46.03;8.17;;;;;;;15.11;100.00;98569.56;10482740;28;20604;-78
2021/08/05 04:46:51;;;;;;;72.90;9.60;;;;;;;15.09;100.00;98567.22;10460487;28;20255;-78
2021/08/05 04:52:09;;;;;;;55.27;9.23;;;;;;;14.95;100.00;98573.19;10485801;28;20194;-78
2021/08/05 04:57:28;;;;;;;31.87;8.10;;;;;;;15.03;100.00;98566.22;10502653;28;20198;-78
2021/08/05 05:02:47;;;;;;;7.07;6.37;;;;;;;14.97;100.00;98568.00;10470968;28;20575;-77
2021/08/05 05:08:16;;;;;;;14.63;7.40;;;;;;;14.96;100.00;98560.91;10460828;28;20254;-78
2021/08/05 05:13:35;;;;;;;9.67;7.60;;;;;;;15.12;100.00;98563.59;10496507;28;20183;-80
2021/08/05 05:18:54;;;;;;;30.20;7.80;;;;;;;15.25;100.00;98562.41;10487214;28;20213;-79
2021/08/05 05:24:12;;;;;;;15.13;7.40;;;;;;;15.25;100.00;98567.97;10477758;28;20294;-80
2021/08/05 05:29:31;;;;;;;17.53;7.03;;;;;;;15.36;100.00;98564.84;10473763;28;20214;-78
2021/08/05 05:34:50;;;;;;;20.60;7.27;;;;;;;15.50;100.00;98556.88;10497288;28;20629;-80
2021/08/05 05:40:10;;;;;;;24.40;7.50;;;;;;;15.41;100.00;98562.31;10459036;28;20707;-79
2021/08/05 05:45:29;;;;;;;10.23;6.90;;;;;;;15.44;100.00;98560.66;10463919;28;20214;-79
2021/08/05 05:50:48;;;;;;;20.50;7.23;;;;;;;15.48;100.00;98552.97;10472407;28;20213;-80
2021/08/05 05:56:07;;;;;;;19.90;6.63;;;;;;;15.63;100.00;98560.41;10458536;28;20658;-79
2021/08/05 06:01:26;;;;;;;42.13;8.33;;;;;;;15.66;100.00;98559.53;10488361;28;20186;-78
2021/08/05 06:06:45;;;;;;;16.73;7.47;;;;;;;15.69;100.00;98568.94;10499895;28;20266;-79
2021/08/05 06:12:04;;;;;;;12.07;7.90;;;;;;;15.72;100.00;98563.28;10474074;28;20182;-76
2021/08/05 06:17:23;;;;;;;31.17;8.70;;;;;;;15.92;100.00;98566.56;10494634;28;20265;-79
2021/08/05 06:22:42;;;;;;;14.53;7.90;;;;;;;16.00;100.00;98562.34;10499045;28;20281;-77
2021/08/05 06:28:01;;;;;;;9.80;8.77;;;;;;;16.08;100.00;98563.66;10489211;28;20243;-78
2021/08/05 06:33:20;;;;;;;19.40;10.30;;;;;;;16.11;100.00;98565.53;10456271;28;20175;-79
2021/08/05 06:38:39;;;;;;;9.57;8.57;;;;;;;16.17;100.00;98566.50;10473586;28;20677;-79
2021/08/05 06:43:58;;;;;;;10.37;9.33;;;;;;;16.43;100.00;98568.00;10498260;28;20281;-78
2021/08/05 06:49:17;;;;;;;10.20;9.20;;;;;;;16.75;100.00;98567.66;10474563;28;20176;-78
2021/08/05 06:54:36;;;;;;;10.67;9.57;;;;;;;17.12;100.00;98568.19;10456785;28;20200;-78
2021/08/05 06:59:55;;;;;;;8.73;8.03;;;;;;;18.01;100.00;98564.25;10458641;28;20187;-77
2021/08/05 07:05:14;;;;;;;8.13;7.43;;;;;;;18.29;100.00;98568.66;10496858;28;20633;-77
2021/08/05 07:10:33;;;;;;;10.43;7.27;;;;;;;18.54;100.00;98564.34;10464521;28;20191;-78
2021/08/05 07:15:52;;;;;;;9.30;8.40;;;;;;;18.79;100.00;98569.59;10454804;28;20179;-78
2021/08/05 07:21:11;;;;;;;9.23;7.33;;;;;;;19.08;100.00;98561.47;10492087;28;20534;-78
2021/08/05 07:26:30;;;;;;;6.40;6.00;;;;;;;20.24;95.69;98554.63;10495680;28;20198;-78
2021/08/05 07:31:50;;;;;;;8.47;7.77;;;;;;;20.96;85.97;98547.22;10454731;28;20545;-79
2021/08/05 07:37:08;;;;;;;10.80;9.70;;;;;;;22.00;85.64;98560.16;10458666;28;20190;-78
2021/08/05 07:42:27;;;;;;;9.03;8.23;;;;;;;22.65;74.67;98559.50;10496382;28;20230;-79
2021/08/05 07:47:46;;;;;;;10.67;9.67;;;;;;;22.97;74.83;98559.09;10487196;28;20266;-78
2021/08/05 07:53:05;;;;;;;8.10;7.50;;;;;;;23.31;71.00;98548.97;10455321;28;20175;-77
2021/08/05 07:58:24;;;;;;;8.57;7.77;;;;;;;23.29;71.26;98555.09;10469400;28;20531;-78
2021/08/05 08:03:43;;;;;;;9.37;8.30;;;;;;;22.66;72.59;98561.81;10502104;28;20210;-79
2021/08/05 08:09:03;;;;;;;9.33;8.53;;;;;;;22.85;70.94;98559.47;10486045;28;20184;-79
2021/08/05 08:14:22;;;;;;;9.13;8.43;;;;;;;22.97;69.23;98558.31;10462989;28;20698;-78
2021/08/05 08:19:41;;;;;;;8.20;7.60;;;;;;;22.95;71.68;98549.63;10484892;28;20190;-79
2021/08/05 08:25:00;;;;;;;8.73;8.00;;;;;;;22.91;70.30;98549.84;10503688;28;20233;-78
2021/08/05 08:30:19;;;;;;;8.93;8.17;;;;;;;22.99;69.04;98544.56;10502416;28;20647;-79
2021/08/05 08:35:38;;;;;;;8.63;7.93;;;;;;;22.77;68.73;98545.09;10503570;28;20600;-79
2021/08/05 08:41:00;;;;;;;9.17;8.37;;;;;;;22.91;69.76;98537.84;10468892;28;20698;-78
2021/08/05 08:46:20;;;;;;;9.03;8.30;;;;;;;22.10;70.65;98544.75;10459968;28;20243;-78
2021/08/05 08:51:44;;;;;;;9.57;8.67;;;;;;;21.66;75.32;98536.97;10500626;28;20179;-77
2021/08/05 08:57:03;;;;;;;10.20;9.30;;;;;;;22.25;68.67;98525.84;10500634;28;20222;-77
2021/08/05 09:02:22;;;;;;;8.83;8.03;;;;;;;24.03;66.00;98512.50;10499627;28;20567;-77
2021/08/05 09:07:44;;;;;;;9.00;8.10;;;;;;;24.62;64.19;98504.88;10500400;28;20175;-77
2021/08/05 09:13:05;;;;;;;9.03;8.33;;;;;;;24.04;63.25;98508.44;10461621;28;20183;-78
2021/08/05 09:18:35;;;;;;;8.50;7.70;;;;;;;25.56;58.99;98510.09;10459310;28;20614;-77
2021/08/05 09:24:06;;;;;;;7.60;7.00;;;;;;;25.95;57.37;98496.75;10481073;28;20202;-78
2021/08/05 09:29:25;;;;;;;10.53;8.90;;;;;;;26.70;52.83;98492.09;10501398;28;20183;-78
2021/08/05 09:34:45;;;;;;;8.50;7.80;;;;;;;26.23;53.70;98491.78;10484840;28;20175;-78
2021/08/05 09:40:17;;;;;;;8.23;7.43;;;;;;;23.96;54.12;98492.53;10459194;28;20215;-77
2021/08/05 09:45:37;;;;;;;8.23;7.53;;;;;;;25.55;53.56;98488.09;10466378;28;20207;-78
2021/08/05 09:51:05;;;;;;;9.13;8.27;;;;;;;26.66;50.53;98471.84;10459328;28;20179;-77
2021/08/05 09:56:25;;;;;;;8.93;8.20;;;;;;;26.23;47.49;98475.63;10458882;28;20203;-78
2021/08/05 10:01:56;;;;;;;7.90;7.30;;;;;;;23.50;55.77;98470.25;10457683;28;20171;-78
2021/08/05 10:07:16;;;;;;;7.07;6.50;;;;;;;23.09;56.40;98475.84;10482903;28;20269;-78
2021/08/05 10:12:35;;;;;;;8.60;7.30;;;;;;;24.23;57.77;98473.00;10498863;28;20179;-78
2021/08/05 10:17:55;;;;;;;8.27;7.47;;;;;;;25.05;56.43;98459.16;10468523;28;20267;-78
2021/08/05 10:23:15;;;;;;;10.20;7.03;;;;;;;25.98;55.21;98454.19;10457347;28;20282;-79
2021/08/05 10:28:37;;;;;;;7.37;6.83;;;;;;;24.99;56.67;98461.19;10492628;28;20896;-77
2021/08/05 10:33:56;;;;;;;6.20;5.80;;;;;;;25.56;55.33;98450.94;10495921;28;20650;-78
2021/08/05 10:39:15;;;;;;;6.00;5.60;;;;;;;24.45;55.16;98445.75;10487256;28;20222;-76
2021/08/05 10:44:37;;;;;;;7.10;6.50;;;;;;;23.59;56.76;98444.78;10498214;28;20669;-78
2021/08/05 10:50:00;;;;;;;7.17;6.27;;;;;;;23.00;60.49;98445.88;10487310;28;20630;-78
2021/08/05 10:55:19;;;;;;;6.50;5.90;;;;;;;22.58;60.43;98440.13;10456629;28;20297;-77
2021/08/05 11:00:50;;;;;;;5.60;5.30;;;;;;;24.53;57.49;98434.78;10474239;28;20187;-77
2021/08/05 11:06:26;;;;;;;5.10;4.70;;;;;;;26.70;46.29;98417.94;10497459;28;20207;-77
2021/08/05 11:11:44;;;;;;;4.03;3.73;;;;;;;25.16;46.94;98422.59;10469301;28;20184;-78
2021/08/05 11:17:05;;;;;;;4.07;3.67;;;;;;;26.33;44.22;98412.00;10455051;28;20182;-77
2021/08/05 11:22:30;;;;;;;3.40;3.20;;;;;;;26.79;42.55;98409.94;10456317;28;20211;-77
2021/08/05 11:28:24;;;;;;;3.90;3.70;;;;;;;24.67;48.82;98400.03;10455854;28;20171;-78
2021/08/05 11:33:46;;;;;;;4.20;3.90;;;;;;;25.76;50.00;98397.16;10456239;28;20171;-77
2021/08/05 11:39:16;;;;;;;4.20;4.00;;;;;;;26.03;47.99;98384.97;10464307;28;20209;-78
2021/08/05 11:44:41;;;;;;;5.40;5.00;;;;;;;24.98;54.03;98392.13;10463907;28;20215;-77
2021/08/05 11:50:08;;;;;;;6.33;5.10;;;;;;;23.64;66.25;98403.97;10475552;28;20186;-78
2021/08/05 11:55:28;;;;;;;5.40;5.10;;;;;;;23.27;70.79;98396.84;10505173;28;20230;-79
2021/08/05 12:00:47;;;;;;;6.30;5.70;;;;;;;23.21;75.76;98394.03;10484391;28;20653;-80
2021/08/05 12:06:05;;;;;;;5.80;5.40;;;;;;;24.46;73.51;98382.59;10462792;28;20207;-79
2021/08/05 12:11:24;;;;;;;5.07;4.67;;;;;;;24.76;67.05;98380.09;10487099;28;20265;-79
2021/08/05 12:16:45;;;;;;;5.07;4.80;;;;;;;26.60;59.09;98363.16;10503094;28;20183;-80
2021/08/05 12:22:04;;;;;;;4.77;4.47;;;;;;;26.05;58.83;98362.69;10473504;28;20263;-79
2021/08/05 12:27:23;;;;;;;4.70;4.50;;;;;;;25.29;58.19;98364.44;10462672;28;20175;-79
2021/08/05 12:33:07;;;;;;;6.63;5.30;;;;;;;24.67;59.55;98366.25;10495159;28;20175;-79
2021/08/05 12:38:26;;;;;;;4.43;4.23;;;;;;;24.79;58.22;98353.75;10501835;28;20178;-77
2021/08/05 12:43:46;;;;;;;4.90;4.70;;;;;;;25.30;58.50;98343.47;10460314;28;20693;-77
2021/08/05 12:49:06;;;;;;;4.40;4.10;;;;;;;26.99;54.92;98324.06;10463424;28;20174;-80
2021/08/05 12:54:26;;;;;;;3.60;3.40;;;;;;;28.16;50.07;98312.41;10502570;28;20728;-78
2021/08/05 12:59:50;;;;;;;3.90;3.67;;;;;;;26.97;48.34;98316.13;10493578;28;20549;-77
2021/08/05 13:05:09;;;;;;;4.10;3.77;;;;;;;26.14;51.80;98320.09;10459513;28;20203;-77
2021/08/05 13:10:43;;;;;;;6.60;4.07;;;;;;;25.66;55.96;98330.28;10474893;28;20191;-78
2021/08/05 13:16:23;;;;;;;4.47;4.17;;;;;;;25.27;53.08;98318.38;10500788;28;20210;-76
2021/08/05 13:21:45;;;;;;;3.43;3.23;;;;;;;26.02;47.17;98315.78;10477504;28;20192;-78
2021/08/05 13:27:23;;;;;;;3.60;3.30;;;;;;;28.04;42.67;98298.97;10459053;28;20184;-79
2021/08/05 13:32:47;;;;;;;3.30;3.10;;;;;;;28.84;40.68;98303.91;10488959;28;20198;-77
2021/08/05 13:38:06;;;;;;;3.57;3.27;;;;;;;28.75;42.96;98301.50;10477511;28;20705;-78
2021/08/05 13:43:26;;;;;;;3.40;3.20;;;;;;;29.28;42.23;98294.63;10459420;28;20745;-77
2021/08/05 13:48:45;;;;;;;3.47;2.97;;;;;;;28.26;45.50;98290.97;10485809;28;20191;-77
2021/08/05 13:54:04;;;;;;;3.20;3.00;;;;;;;28.05;44.49;98286.34;10500585;28;20198;-77
2021/08/05 13:59:23;;;;;;;3.43;3.23;;;;;;;28.96;43.87;98288.28;10466685;28;20239;-78
2021/08/05 14:04:42;;;;;;;3.30;3.10;;;;;;;29.56;45.30;98286.38;10457094;28;20239;-77
2021/08/05 14:10:03;;;;;;;3.40;3.20;;;;;;;29.79;43.90;98265.50;10496216;28;20633;-77
2021/08/05 14:15:23;;;;;;;3.73;3.53;;;;;;;29.81;41.30;98271.41;10498469;28;20179;-77
2021/08/05 14:20:42;;;;;;;3.80;3.50;;;;;;;27.90;42.30;98267.03;10480140;28;20637;-77
2021/08/05 14:26:01;;;;;;;2.90;2.80;;;;;;;29.93;41.07;98254.91;10457289;28;20207;-76
2021/08/05 14:31:20;;;;;;;3.40;3.10;;;;;;;30.38;37.54;98259.75;10456826;28;20183;-77
2021/08/05 14:36:39;;;;;;;2.60;2.40;;;;;;;29.49;37.81;98258.66;10457470;28;20187;-77
2021/08/05 14:41:59;;;;;;;2.80;2.60;;;;;;;27.62;40.72;98255.34;10492888;28;20222;-77
2021/08/05 14:47:18;;;;;;;3.13;2.93;;;;;;;28.80;43.09;98249.69;10497342;28;20182;-78
2021/08/05 14:52:38;;;;;;;3.37;3.07;;;;;;;28.91;40.69;98249.50;10456159;28;20306;-76
2021/08/05 14:57:57;;;;;;;3.50;3.10;;;;;;;29.77;39.94;98236.91;10458203;28;20191;-77
2021/08/05 15:03:16;;;;;;;3.70;3.50;;;;;;;29.45;38.83;98239.16;10496478;28;20210;-76
2021/08/05 15:08:35;;;;;;;3.03;2.90;;;;;;;30.32;38.56;98219.41;10489630;28;20183;-77
2021/08/05 15:13:54;;;;;;;2.33;2.23;;;;;;;29.98;36.88;98223.59;10456200;28;20191;-76
2021/08/05 15:19:14;;;;;;;3.07;2.83;;;;;;;26.97;42.08;98231.44;10466217;28;20696;-76
2021/08/05 15:24:33;;;;;;;3.90;3.70;;;;;;;26.21;43.64;98226.47;10497049;28;20340;-76
2021/08/05 15:29:52;;;;;;;3.27;2.80;;;;;;;25.47;46.67;98228.69;10478483;28;20191;-76
2021/08/05 15:35:11;;;;;;;3.53;3.30;;;;;;;26.44;43.98;98203.25;10454441;28;20620;-76
2021/08/05 15:40:31;;;;;;;3.50;3.30;;;;;;;26.76;43.54;98204.19;10478089;28;20210;-75
2021/08/05 15:45:50;;;;;;;3.60;3.40;;;;;;;26.22;45.84;98199.81;10495554;28;20214;-75
2021/08/05 15:51:09;;;;;;;3.40;3.10;;;;;;;26.08;46.38;98196.06;10468375;28;20199;-74
2021/08/05 15:56:28;;;;;;;4.10;3.17;;;;;;;26.59;46.64;98188.72;10454527;28;20175;-75
2021/08/05 16:01:47;;;;;;;3.57;3.37;;;;;;;26.27;46.86;98185.66;10486819;28;20195;-75
2021/08/05 16:07:06;;;;;;;4.43;4.13;;;;;;;25.34;48.96;98185.50;10455294;28;20183;-75
2021/08/05 16:12:26;;;;;;;3.20;2.90;;;;;;;25.78;49.77;98180.41;10473189;28;20183;-75
2021/08/05 16:17:45;;;;;;;3.50;3.20;;;;;;;25.50;47.00;98182.63;10484713;28;20179;-75
2021/08/05 16:23:05;;;;;;;3.40;3.20;;;;;;;25.63;48.36;98187.66;10460383;28;20235;-75
2021/08/05 16:28:23;;;;;;;3.53;3.33;;;;;;;25.82;48.60;98180.91;10490561;28;20186;-75
2021/08/05 16:33:42;;;;;;;5.07;4.60;;;;;;;25.79;49.84;98181.94;10491067;28;20187;-76
2021/08/05 16:39:04;;;;;;;4.50;4.20;;;;;;;25.45;52.14;98191.09;10461951;28;20219;-75
2021/08/05 16:44:23;;;;;;;4.10;3.80;;;;;;;25.20;53.30;98184.53;10461643;28;20207;-75
2021/08/05 16:49:42;;;;;;;4.03;3.73;;;;;;;24.49;56.45;98198.03;10483291;28;20200;-74
2021/08/05 16:55:02;;;;;;;3.93;3.53;;;;;;;24.48;56.03;98182.44;10502989;28;20187;-74
2021/08/05 17:00:21;;;;;;;4.47;3.53;;;;;;;24.56;55.04;98189.06;10472004;28;20179;-75
2021/08/05 17:05:43;;;;;;;4.27;3.97;;;;;;;24.55;58.39;98185.50;10460706;28;20202;-74
2021/08/05 17:11:02;;;;;;;5.63;3.83;;;;;;;24.45;58.17;98187.03;10493978;28;20183;-74
2021/08/05 17:16:21;;;;;;;4.40;4.10;;;;;;;24.28;60.53;98188.31;10479640;28;20640;-75
2021/08/05 17:21:41;;;;;;;5.10;4.70;;;;;;;23.73;65.95;98191.09;10511757;28;20269;-76
2021/08/05 17:27:03;;;;;;;4.90;4.20;;;;;;;22.66;74.59;98202.13;10539477;28;20281;-81
2021/08/05 17:32:21;;;;;;;7.60;6.40;;;;;;;21.69;86.91;98223.97;10532107;28;20194;-78
2021/08/05 17:37:40;;;;;;;17.97;7.50;;;;;;;20.70;91.97;98221.16;10500783;28;20230;-75
2021/08/05 17:42:59;;;;;;;8.80;7.13;;;;;;;19.89;97.90;98221.41;10487854;28;20230;-80
2021/08/05 17:48:20;;;;;;;6.30;5.80;;;;;;;19.68;99.87;98222.53;10498938;28;20178;-80
2021/08/05 17:53:39;;;;;;;7.13;6.63;;;;;;;19.69;100.00;98206.56;10463645;28;20194;-77
2021/08/05 17:58:59;;;;;;;7.17;5.80;;;;;;;19.72;100.00;98217.56;10500105;28;20178;-76
2021/08/05 18:04:18;;;;;;;12.60;6.83;;;;;;;19.79;100.00;98202.44;10473102;28;20211;-78
2021/08/05 18:09:37;;;;;;;8.27;7.33;;;;;;;19.79;100.00;98210.81;10482634;28;20194;-78
2021/08/05 18:14:57;;;;;;;6.60;6.10;;;;;;;19.71;100.00;98198.47;10488583;28;20191;-77
2021/08/05 18:20:16;;;;;;;7.47;6.87;;;;;;;19.64;100.00;98201.66;10471310;28;20179;-77
2021/08/05 18:25:35;;;;;;;7.00;6.47;;;;;;;19.69;100.00;98207.34;10493390;28;20218;-81
2021/08/05 18:30:54;;;;;;;6.97;6.47;;;;;;;19.76;100.00;98197.81;10468498;28;20176;-79
2021/08/05 18:36:13;;;;;;;6.60;6.03;;;;;;;19.63;100.00;98186.94;10458355;28;20183;-81
2021/08/05 18:41:33;;;;;;;9.10;7.03;;;;;;;19.44;100.00;98199.53;10467315;28;20585;-81
2021/08/05 18:46:52;;;;;;;8.73;8.03;;;;;;;19.29;100.00;98212.69;10486114;28;20218;-81
2021/08/05 18:52:13;;;;;;;7.90;7.17;;;;;;;19.18;100.00;98219.28;10478555;28;20198;-81
2021/08/05 18:57:32;;;;;;;8.00;7.30;;;;;;;19.05;100.00;98227.88;10455939;28;20545;-79
2021/08/05 19:02:52;;;;;;;8.13;7.43;;;;;;;18.62;100.00;98228.47;10467335;28;20210;-77
2021/08/05 19:08:10;;;;;;;9.20;8.30;;;;;;;18.58;100.00;98241.03;10465532;28;20191;-81
2021/08/05 19:13:31;;;;;;;11.07;8.10;;;;;;;18.48;100.00;98234.75;10472990;28;20633;-80
2021/08/05 19:18:50;;;;;;;8.33;7.60;;;;;;;18.43;100.00;98240.94;10495656;28;20206;-77
2021/08/05 19:24:09;;;;;;;12.30;8.53;;;;;;;18.54;100.00;98238.41;10493487;28;20210;-77
2021/08/05 19:29:28;;;;;;;9.93;9.00;;;;;;;18.56;100.00;98249.06;10488053;28;20653;-79
2021/08/05 19:34:48;;;;;;;10.87;7.23;;;;;;;18.63;100.00;98249.50;10492166;28;20186;-77
2021/08/05 19:40:07;;;;;;;9.03;8.20;;;;;;;18.65;100.00;98252.59;10480051;28;20665;-77
2021/08/05 19:45:26;;;;;;;8.17;7.37;;;;;;;18.25;100.00;98247.84;10487784;28;20207;-77
2021/08/05 19:50:46;;;;;;;7.57;6.97;;;;;;;18.14;100.00;98234.38;10464886;28;20207;-79
2021/08/05 19:56:04;;;;;;;8.23;7.60;;;;;;;18.23;100.00;98241.97;10479350;28;20203;-79
2021/08/05 20:01:23;;;;;;;8.83;7.10;;;;;;;18.11;100.00;98245.69;10502920;28;20183;-79
2021/08/05 20:06:42;;;;;;;7.67;6.97;;;;;;;17.99;100.00;98238.31;10464938;28;20684;-80
2021/08/05 20:12:01;;;;;;;8.30;6.87;;;;;;;18.10;100.00;98239.34;10480980;28;20183;-79
2021/08/05 20:17:21;;;;;;;6.97;6.37;;;;;;;18.02;100.00;98229.00;10480540;28;20191;-79
2021/08/05 20:22:41;;;;;;;7.30;6.00;;;;;;;17.83;100.00;98222.72;10474715;28;20203;-77
2021/08/05 20:27:59;;;;;;;7.17;6.23;;;;;;;17.81;100.00;98216.84;10462691;28;20207;-80
2021/08/05 20:33:18;;;;;;;5.97;5.57;;;;;;;17.73;100.00;98228.78;10482989;28;20179;-81
2021/08/05 20:38:37;;;;;;;4.47;4.17;;;;;;;17.62;100.00;98232.06;10476821;28;20269;-79
2021/08/05 20:43:56;;;;;;;5.30;4.97;;;;;;;17.53;100.00;98222.19;10503021;28;20218;-78
2021/08/05 20:49:15;;;;;;;5.07;4.67;;;;;;;17.25;100.00;98224.19;10469011;28;20574;-78
2021/08/05 20:54:34;;;;;;;7.27;4.90;;;;;;;17.14;100.00;98223.88;10466849;28;20182;-79
2021/08/05 20:59:53;;;;;;;6.53;5.80;;;;;;;17.13;100.00;98230.66;10461443;28;20183;-80
2021/08/05 21:05:12;;;;;;;6.20;5.60;;;;;;;17.01;100.00;98234.38;10470025;28;20238;-80
2021/08/05 21:10:31;;;;;;;6.73;6.07;;;;;;;17.08;100.00;98238.88;10460931;28;20179;-81
2021/08/05 21:15:50;;;;;;;7.63;5.90;;;;;;;16.70;100.00;98246.06;10480732;28;20222;-79
2021/08/05 21:21:09;;;;;;;6.17;4.90;;;;;;;16.62;100.00;98237.22;10472631;28;20175;-80
2021/08/05 21:26:28;;;;;;;6.13;5.53;;;;;;;16.73;100.00;98234.00;10463836;28;20579;-77
2021/08/05 21:31:48;;;;;;;5.00;4.60;;;;;;;16.80;100.00;98243.59;10464307;28;20179;-79
2021/08/05 21:37:07;;;;;;;9.90;6.83;;;;;;;16.70;100.00;98244.03;10460072;28;20622;-78
2021/08/05 21:42:27;;;;;;;5.10;4.67;;;;;;;16.65;100.00;98235.53;10475358;28;20222;-77
2021/08/05 21:47:45;;;;;;;5.03;4.60;;;;;;;16.68;100.00;98240.19;10480240;28;20199;-77
2021/08/05 21:53:05;;;;;;;7.40;4.83;;;;;;;16.70;100.00;98243.28;10482159;28;20187;-79
2021/08/05 21:58:24;;;;;;;5.00;4.60;;;;;;;16.77;100.00;98243.75;10474647;28;20553;-78
2021/08/05 22:03:42;;;;;;;10.50;4.70;;;;;;;16.48;100.00;98284.22;10464543;28;20203;-77
2021/08/05 22:09:01;;;;;;;6.50;5.93;;;;;;;16.37;100.00;98258.91;10480483;28;20179;-83
2021/08/05 22:14:20;;;;;;;5.73;5.30;;;;;;;16.27;100.00;98246.19;10498924;28;20640;-82
2021/08/05 22:19:40;;;;;;;6.30;5.30;;;;;;;16.30;100.00;98237.75;10497028;28;20218;-76
2021/08/05 22:24:59;;;;;;;6.00;5.50;;;;;;;16.41;100.00;98224.22;10489248;28;20210;-78
2021/08/05 22:30:18;;;;;;;7.10;6.50;;;;;;;16.43;100.00;98229.31;10469134;28;20214;-77
2021/08/05 22:35:37;;;;;;;6.37;5.70;;;;;;;16.41;100.00;98231.78;10477976;28;20179;-76
2021/08/05 22:40:56;;;;;;;6.50;5.90;;;;;;;16.43;100.00;98224.56;10486757;28;20226;-78
2021/08/05 22:46:15;;;;;;;7.10;6.50;;;;;;;16.47;100.00;98221.63;10496428;28;20685;-78
2021/08/05 22:51:34;;;;;;;6.13;5.37;;;;;;;16.53;100.00;98222.56;10458431;28;20203;-76
2021/08/05 22:56:56;;;;;;;5.70;5.30;;;;;;;16.56;100.00;98222.41;10456822;28;20195;-78
2021/08/05 23:02:15;;;;;;;6.53;5.93;;;;;;;16.56;100.00;98205.00;10456489;28;20175;-78
2021/08/05 23:07:36;;;;;;;7.00;6.23;;;;;;;16.53;100.00;98201.09;10483805;28;20194;-78
2021/08/05 23:12:55;;;;;;;6.97;5.90;;;;;;;16.47;100.00;98197.41;10488072;28;20191;-79
2021/08/05 23:18:14;;;;;;;12.33;6.30;;;;;;;16.39;100.00;98207.25;10467750;28;20214;-78
2021/08/05 23:23:33;;;;;;;7.60;6.33;;;;;;;16.37;100.00;98197.84;10488463;28;20206;-77
2021/08/05 23:28:52;;;;;;;7.63;6.03;;;;;;;16.34;100.00;98193.19;10471539;28;20179;-78
2021/08/05 23:34:11;;;;;;;7.60;6.53;;;;;;;16.28;100.00;98183.91;10472961;28;20235;-77
2021/08/05 23:39:30;;;;;;;8.47;6.40;;;;;;;16.24;100.00;98184.06;10462126;28;20218;-77
2021/08/05 23:44:49;;;;;;;9.47;7.17;;;;;;;16.24;100.00;98167.41;10466453;28;20298;-78
2021/08/05 23:50:09;;;;;;;9.47;6.90;;;;;;;16.20;100.00;98177.09;10454191;28;20199;-79
2021/08/05 23:55:33;;;;;;;12.37;8.50;;;;;;;16.20;100.00;98168.78;10455491;28;20224;-77
